createdAt,value
2018-02-24T00:00:34.350Z,-2.45
2018-02-24T00:03:02.690Z,-2.40
2018-02-24T00:05:30.956Z,-2.44
2018-02-24T00:07:59.550Z,-2.53
2018-02-24T00:10:28.617Z,-2.51
2018-02-24T00:12:57.833Z,-2.46
2018-02-24T00:15:27.040Z,-2.44
2018-02-24T00:17:55.329Z,-2.32
2018-02-24T00:20:23.620Z,-2.29
2018-02-24T00:22:51.959Z,-2.17
2018-02-24T00:25:21.144Z,-2.16
2018-02-24T00:27:49.424Z,-2.00
2018-02-24T00:30:17.730Z,-1.95
2018-02-24T00:32:46.754Z,-1.98
2018-02-24T00:35:15.064Z,-1.91
2018-02-24T00:37:44.144Z,-1.92
2018-02-24T00:40:12.434Z,-1.90
2018-02-24T00:42:42.252Z,-1.76
2018-02-24T00:45:11.648Z,-1.78
2018-02-24T00:47:40.714Z,-1.71
2018-02-24T00:50:09.009Z,-1.71
2018-02-24T00:52:37.326Z,-1.68
2018-02-24T00:55:05.683Z,-1.58
2018-02-24T00:57:34.760Z,-1.58
2018-02-24T01:00:03.068Z,-1.60
2018-02-24T01:02:32.130Z,-1.54
2018-02-24T01:05:00.458Z,-1.57
2018-02-24T01:07:28.761Z,-1.56
2018-02-24T01:09:57.059Z,-1.50
2018-02-24T01:12:25.364Z,-1.47
2018-02-24T01:14:54.449Z,-1.32
2018-02-24T01:17:22.750Z,-1.32
2018-02-24T01:19:51.810Z,-1.29
2018-02-24T01:22:20.132Z,-1.28
2018-02-24T01:24:48.768Z,-1.18
2018-02-24T01:27:17.068Z,-1.16
2018-02-24T01:29:45.377Z,-1.19
2018-02-24T01:32:13.663Z,-1.24
2018-02-24T01:34:41.955Z,-1.22
2018-02-24T01:37:10.247Z,-1.19
2018-02-24T01:39:38.598Z,-1.17
2018-02-24T01:42:06.863Z,-1.16
2018-02-24T01:44:35.156Z,-1.18
2018-02-24T01:47:03.445Z,-1.13
2018-02-24T01:49:31.729Z,-1.08
2018-02-24T01:52:00.035Z,-1.07
2018-02-24T01:54:28.300Z,-1.10
2018-02-24T01:56:56.577Z,-1.05
2018-02-24T01:59:24.937Z,-1.05
2018-02-24T02:01:53.224Z,-0.97
2018-02-24T02:04:21.516Z,-0.99
2018-02-24T02:06:50.127Z,-0.98
2018-02-24T02:09:19.217Z,-0.88
2018-02-24T02:11:47.473Z,-0.89
2018-02-24T02:14:15.769Z,-0.90
2018-02-24T02:16:44.044Z,-0.86
2018-02-24T02:19:12.342Z,-0.86
2018-02-24T02:21:41.966Z,-0.75
2018-02-24T02:24:10.344Z,-0.86
2018-02-24T02:26:38.633Z,-0.84
2018-02-24T02:29:07.238Z,-0.85
2018-02-24T02:31:35.539Z,-0.81
2018-02-24T02:34:03.820Z,-0.87
2018-02-24T02:36:32.476Z,-0.83
2018-02-24T02:39:01.520Z,-0.78
2018-02-24T02:41:29.825Z,-0.88
2018-02-24T02:43:58.126Z,-0.85
2018-02-24T02:46:26.409Z,-0.81
2018-02-24T02:48:54.728Z,-0.79
2018-02-24T02:51:23.013Z,-0.81
2018-02-24T02:53:51.298Z,-0.76
2018-02-24T02:56:20.371Z,-0.76
2018-02-24T02:58:48.645Z,-0.74
2018-02-24T03:01:16.940Z,-0.67
2018-02-24T03:03:45.245Z,-0.73
2018-02-24T03:06:13.766Z,-0.74
2018-02-24T03:08:42.066Z,-0.72
2018-02-24T03:11:10.346Z,-0.76
2018-02-24T03:13:38.652Z,-0.76
2018-02-24T03:16:07.699Z,-0.67
2018-02-24T03:18:35.997Z,-0.66
2018-02-24T03:21:04.296Z,-0.65
2018-02-24T03:23:33.384Z,-0.67
2018-02-24T03:26:01.678Z,-0.64
2018-02-24T03:28:31.490Z,-0.62
2018-02-24T03:31:00.851Z,-0.61
2018-02-24T03:33:29.154Z,-0.65
2018-02-24T03:35:57.432Z,-0.58
2018-02-24T03:38:25.724Z,-0.57
2018-02-24T03:40:55.007Z,-0.48
2018-02-24T03:43:23.322Z,-0.49
2018-02-24T03:45:51.591Z,-0.52
2018-02-24T03:48:19.884Z,-0.57
2018-02-24T03:50:48.179Z,-0.55
2018-02-24T03:53:17.241Z,-0.52
2018-02-24T03:55:46.290Z,-0.53
2018-02-24T03:58:14.613Z,-0.34
2018-02-24T04:00:43.669Z,-0.46
2018-02-24T04:03:11.962Z,-0.44
2018-02-24T04:05:40.289Z,-0.47
2018-02-24T04:08:08.574Z,-0.44
2018-02-24T04:10:37.265Z,-0.43
2018-02-24T04:13:05.694Z,-0.31
2018-02-24T04:15:33.976Z,-0.12
2018-02-24T04:18:02.627Z,-0.20
2018-02-24T04:20:31.500Z,-0.32
2018-02-24T04:22:59.780Z,-0.38
2018-02-24T04:25:28.073Z,-0.43
2018-02-24T04:27:56.359Z,-0.42
2018-02-24T04:30:24.631Z,-0.36
2018-02-24T04:32:53.300Z,-0.34
2018-02-24T04:35:21.580Z,-0.36
2018-02-24T04:37:50.488Z,-0.37
2018-02-24T04:40:18.805Z,-0.33
2018-02-24T04:42:47.877Z,-0.41
2018-02-24T04:45:16.144Z,-0.35
2018-02-24T04:47:44.710Z,-0.25
2018-02-24T04:50:13.958Z,-0.08
2018-02-24T04:52:43.029Z,-0.08
2018-02-24T04:55:11.314Z,-0.19
2018-02-24T04:57:39.610Z,-0.02
2018-02-24T05:00:08.691Z,0.12
2018-02-24T05:02:36.965Z,0.03
2018-02-24T05:05:05.272Z,-0.07
2018-02-24T05:07:35.311Z,0.07
2018-02-24T05:10:03.578Z,0.08
2018-02-24T05:12:31.853Z,0.08
2018-02-24T05:15:00.191Z,0.02
2018-02-24T05:17:28.441Z,0.10
2018-02-24T05:19:56.733Z,-0.02
2018-02-24T05:22:25.036Z,0.04
2018-02-24T05:24:53.373Z,0.11
2018-02-24T05:27:21.612Z,0.04
2018-02-24T05:29:51.580Z,0.04
2018-02-24T05:32:19.852Z,0.01
2018-02-24T05:34:48.124Z,-0.12
2018-02-24T05:37:16.424Z,0.03
2018-02-24T05:39:44.725Z,-0.04
2018-02-24T05:42:12.999Z,0.01
2018-02-24T05:44:41.641Z,0.08
2018-02-24T05:47:10.633Z,0.24
2018-02-24T05:49:38.908Z,0.18
2018-02-24T05:52:07.188Z,0.15
2018-02-24T05:54:35.464Z,0.11
2018-02-24T05:57:04.059Z,0.16
2018-02-24T05:59:32.335Z,0.21
2018-02-24T06:02:00.616Z,0.23
2018-02-24T06:04:28.925Z,0.30
2018-02-24T06:06:57.196Z,0.32
2018-02-24T06:09:25.481Z,0.32
2018-02-24T06:11:54.139Z,0.37
2018-02-24T06:14:23.223Z,0.35
2018-02-24T06:16:51.500Z,0.52
2018-02-24T06:19:20.121Z,0.54
2018-02-24T06:21:48.386Z,0.47
2018-02-24T06:24:16.665Z,0.44
2018-02-24T06:26:45.197Z,0.48
2018-02-24T06:29:14.266Z,0.56
2018-02-24T06:31:42.653Z,0.54
2018-02-24T06:34:11.852Z,0.60
2018-02-24T06:36:40.106Z,0.58
2018-02-24T06:39:08.372Z,0.56
2018-02-24T06:41:36.944Z,0.52
2018-02-24T06:44:05.216Z,0.52
2018-02-24T06:46:34.086Z,0.55
2018-02-24T06:49:02.360Z,0.50
2018-02-24T06:51:31.213Z,0.58
2018-02-24T06:53:59.577Z,0.65
2018-02-24T06:56:27.861Z,0.62
2018-02-24T06:58:56.152Z,0.73
2018-02-24T07:01:25.033Z,0.63
2018-02-24T07:03:53.296Z,0.53
2018-02-24T07:06:21.877Z,0.55
2018-02-24T07:08:50.158Z,0.71
2018-02-24T07:11:18.453Z,0.60
2018-02-24T07:13:47.517Z,0.59
2018-02-24T07:16:15.807Z,0.71
2018-02-24T07:18:44.465Z,0.74
2018-02-24T07:21:12.971Z,0.63
2018-02-24T07:23:41.280Z,0.57
2018-02-24T07:26:09.548Z,0.60
2018-02-24T07:28:37.911Z,0.71
2018-02-24T07:31:06.377Z,0.79
2018-02-24T07:33:34.637Z,0.70
2018-02-24T07:36:03.054Z,0.84
2018-02-24T07:38:31.340Z,0.94
2018-02-24T07:40:59.632Z,0.82
2018-02-24T07:43:29.395Z,0.94
2018-02-24T07:45:57.902Z,0.88
2018-02-24T07:48:26.175Z,0.83
2018-02-24T07:50:54.434Z,0.94
2018-02-24T07:53:24.380Z,1.04
2018-02-24T07:55:52.652Z,1.09
2018-02-24T07:58:21.876Z,1.16
2018-02-24T08:00:50.932Z,1.18
2018-02-24T08:03:19.223Z,1.23
2018-02-24T08:05:47.528Z,1.22
2018-02-24T08:08:16.246Z,1.39
2018-02-24T08:10:45.312Z,1.51
2018-02-24T08:13:13.599Z,1.46
2018-02-24T08:15:42.561Z,1.62
2018-02-24T08:18:11.619Z,1.61
2018-02-24T08:20:40.025Z,1.68
2018-02-24T08:23:09.728Z,2.05
2018-02-24T08:25:38.007Z,2.24
2018-02-24T08:28:06.437Z,2.21
2018-02-24T08:30:34.984Z,2.57
2018-02-24T08:33:03.248Z,2.54
2018-02-24T08:35:31.556Z,2.75
2018-02-24T08:37:59.829Z,2.81
2018-02-24T08:40:28.259Z,2.64
2018-02-24T08:42:57.321Z,2.59
2018-02-24T08:45:25.588Z,2.51
2018-02-24T08:47:53.949Z,2.42
2018-02-24T08:50:22.567Z,2.01
2018-02-24T08:52:51.148Z,1.93
2018-02-24T08:55:20.403Z,1.78
2018-02-24T08:57:48.664Z,1.72
2018-02-24T09:00:16.929Z,1.57
2018-02-24T09:02:46.010Z,1.75
2018-02-24T09:05:16.009Z,1.93
2018-02-24T09:07:44.356Z,1.92
2018-02-24T09:10:12.632Z,1.94
2018-02-24T09:12:40.916Z,1.98
2018-02-24T09:15:09.208Z,2.17
2018-02-24T09:17:37.476Z,2.01
2018-02-24T09:20:05.783Z,2.16
2018-02-24T09:22:34.096Z,2.00
2018-02-24T09:25:03.349Z,2.05
2018-02-24T09:27:31.613Z,1.84
2018-02-24T09:30:00.305Z,2.06
2018-02-24T09:32:28.939Z,1.98
2018-02-24T09:34:57.975Z,2.24
2018-02-24T09:37:26.468Z,2.20
2018-02-24T09:39:54.752Z,2.20
2018-02-24T09:42:23.021Z,2.14
2018-02-24T09:44:51.606Z,2.11
2018-02-24T09:47:19.964Z,2.03
2018-02-24T09:49:48.264Z,1.79
2018-02-24T09:52:16.572Z,1.89
2018-02-24T09:54:44.872Z,1.98
2018-02-24T09:57:13.952Z,1.90
2018-02-24T09:59:42.843Z,1.91
2018-02-24T10:02:11.132Z,1.83
2018-02-24T10:04:40.371Z,1.86
2018-02-24T10:07:08.648Z,1.80
2018-02-24T10:09:38.280Z,1.77
2018-02-24T10:12:07.332Z,1.65
2018-02-24T10:14:36.391Z,1.67
2018-02-24T10:17:05.362Z,1.72
2018-02-24T10:19:33.718Z,1.54
2018-02-24T10:22:01.989Z,1.57
2018-02-24T10:24:30.333Z,1.46
2018-02-24T10:26:58.622Z,1.56
2018-02-24T10:29:27.775Z,1.55
2018-02-24T10:31:57.263Z,1.52
2018-02-24T10:34:25.637Z,1.45
2018-02-24T10:36:54.668Z,1.51
2018-02-24T10:39:23.340Z,1.58
2018-02-24T10:41:51.603Z,1.69
2018-02-24T10:44:20.220Z,1.63
2018-02-24T10:46:49.187Z,1.62
2018-02-24T10:49:18.167Z,1.75
2018-02-24T10:51:48.261Z,1.75
2018-02-24T10:54:17.329Z,1.90
2018-02-24T10:56:45.613Z,2.09
2018-02-24T10:59:14.784Z,2.04
2018-02-24T11:01:43.088Z,2.15
2018-02-24T11:04:11.384Z,2.30
2018-02-24T11:06:40.413Z,2.62
2018-02-24T11:09:09.013Z,2.67
2018-02-24T11:11:38.210Z,2.68
2018-02-24T11:14:07.180Z,2.62
2018-02-24T11:16:36.990Z,2.68
2018-02-24T11:19:06.123Z,2.58
2018-02-24T11:21:34.481Z,2.60
2018-02-24T11:24:02.786Z,2.47
2018-02-24T11:26:31.057Z,2.33
2018-02-24T11:28:59.329Z,2.12
2018-02-24T11:31:27.616Z,2.26
2018-02-24T11:33:55.873Z,2.30
2018-02-24T11:36:24.172Z,2.30
2018-02-24T11:38:52.768Z,2.47
2018-02-24T11:41:21.371Z,2.36
2018-02-24T11:43:49.673Z,2.33
2018-02-24T11:46:18.810Z,1.98
2018-02-24T11:48:47.322Z,1.95
2018-02-24T11:51:16.229Z,1.98
2018-02-24T11:53:44.584Z,1.93
2018-02-24T11:56:13.744Z,2.12
2018-02-24T11:58:42.112Z,1.95
2018-02-24T12:01:10.385Z,2.17
2018-02-24T12:03:40.223Z,2.28
2018-02-24T12:06:09.120Z,2.47
2018-02-24T12:08:37.410Z,2.38
2018-02-24T12:11:05.704Z,2.51
2018-02-24T12:13:33.967Z,2.39
2018-02-24T12:16:05.103Z,2.27
2018-02-24T12:18:33.480Z,2.18
2018-02-24T12:21:02.010Z,2.30
2018-02-24T12:23:31.189Z,2.06
2018-02-24T12:25:59.468Z,1.97
2018-02-24T12:28:28.471Z,1.79
2018-02-24T12:30:58.438Z,1.93
2018-02-24T12:33:27.000Z,1.94
2018-02-24T12:35:56.032Z,1.91
2018-02-24T12:38:24.403Z,1.99
2018-02-24T12:40:53.789Z,1.97
2018-02-24T12:43:22.127Z,2.04
2018-02-24T12:45:52.038Z,2.04
2018-02-24T12:48:20.310Z,1.99
2018-02-24T12:50:48.656Z,1.97
2018-02-24T12:53:17.030Z,2.04
2018-02-24T12:55:45.298Z,1.94
2018-02-24T12:58:13.557Z,1.86
2018-02-24T13:00:42.609Z,1.88
2018-02-24T13:03:10.878Z,2.07
2018-02-24T13:05:39.188Z,2.12
2018-02-24T13:08:07.494Z,2.24
2018-02-24T13:10:36.528Z,3.04
2018-02-24T13:13:04.787Z,3.31
2018-02-24T13:15:33.896Z,4.65
2018-02-24T13:18:02.169Z,4.05
2018-02-24T13:20:30.429Z,4.88
2018-02-24T13:22:58.780Z,5.26
2018-02-24T13:25:28.265Z,5.06
2018-02-24T13:27:56.489Z,5.14
2018-02-24T13:30:24.777Z,7.20
2018-02-24T13:32:53.075Z,7.84
2018-02-24T13:35:21.371Z,7.47
2018-02-24T13:37:49.680Z,6.51
2018-02-24T13:40:19.053Z,5.34
2018-02-24T13:42:47.371Z,4.59
2018-02-24T13:45:16.441Z,4.13
2018-02-24T13:47:44.771Z,4.43
2018-02-24T13:50:13.053Z,4.84
2018-02-24T13:52:42.884Z,6.62
2018-02-24T13:55:11.193Z,7.05
2018-02-24T13:57:39.873Z,5.86
2018-02-24T14:00:08.953Z,5.37
2018-02-24T14:02:37.217Z,4.68
2018-02-24T14:05:05.534Z,4.21
2018-02-24T14:07:33.894Z,4.08
2018-02-24T14:10:02.144Z,3.87
2018-02-24T14:12:31.632Z,3.57
2018-02-24T14:15:00.761Z,3.93
2018-02-24T14:17:29.036Z,3.84
2018-02-24T14:19:57.317Z,3.60
2018-02-24T14:22:25.679Z,3.81
2018-02-24T14:24:54.064Z,3.30
2018-02-24T14:27:22.673Z,3.00
2018-02-24T14:29:51.045Z,3.04
2018-02-24T14:32:19.762Z,2.73
2018-02-24T14:34:48.028Z,2.61
2018-02-24T14:37:16.546Z,2.58
2018-02-24T14:39:45.604Z,2.45
2018-02-24T14:42:14.049Z,2.52
2018-02-24T14:44:42.429Z,2.59
2018-02-24T14:47:10.743Z,2.70
2018-02-24T14:49:39.094Z,2.85
2018-02-24T14:52:07.489Z,2.54
2018-02-24T14:54:35.772Z,2.65
2018-02-24T14:57:04.844Z,2.78
2018-02-24T14:59:33.484Z,2.57
2018-02-24T15:02:03.386Z,2.53
2018-02-24T15:04:32.384Z,2.56
2018-02-24T15:07:00.664Z,2.26
2018-02-24T15:09:29.060Z,1.87
2018-02-24T15:11:58.101Z,1.82
2018-02-24T15:14:26.698Z,1.57
2018-02-24T15:16:54.983Z,1.51
2018-02-24T15:19:23.258Z,1.55
2018-02-24T15:21:51.820Z,1.57
2018-02-24T15:24:20.092Z,1.72
2018-02-24T15:26:48.380Z,1.81
2018-02-24T15:29:16.960Z,1.95
2018-02-24T15:31:45.227Z,1.88
2018-02-24T15:34:14.248Z,2.00
2018-02-24T15:36:42.538Z,2.03
2018-02-24T15:39:10.849Z,2.10
2018-02-24T15:41:39.108Z,2.07
2018-02-24T15:44:08.203Z,1.95
2018-02-24T15:46:36.972Z,1.98
2018-02-24T15:49:05.288Z,1.81
2018-02-24T15:51:35.061Z,1.46
2018-02-24T15:54:03.552Z,1.44
2018-02-24T15:56:31.858Z,1.40
2018-02-24T15:59:01.027Z,1.43
2018-02-24T16:01:29.333Z,1.32
2018-02-24T16:03:58.560Z,1.32
2018-02-24T16:06:26.833Z,1.47
2018-02-24T16:08:55.104Z,1.40
2018-02-24T16:11:24.250Z,1.43
2018-02-24T16:13:52.832Z,1.18
2018-02-24T16:16:21.120Z,1.23
2018-02-24T16:18:49.408Z,1.23
2018-02-24T16:21:17.877Z,1.06
2018-02-24T16:23:46.265Z,0.91
2018-02-24T16:26:14.540Z,0.81
2018-02-24T16:28:42.900Z,0.78
2018-02-24T16:31:11.881Z,0.54
2018-02-24T16:33:41.500Z,0.61
2018-02-24T16:36:11.017Z,0.53
2018-02-24T16:38:40.055Z,0.43
2018-02-24T16:41:09.116Z,0.26
2018-02-24T16:43:37.430Z,0.28
2018-02-24T16:46:06.496Z,0.22
2018-02-24T16:48:35.065Z,-0.07
2018-02-24T16:51:03.440Z,-0.09
2018-02-24T16:53:31.827Z,0.00
2018-02-24T16:56:00.139Z,-0.06
2018-02-24T16:58:28.744Z,-0.05
2018-02-24T17:00:58.682Z,0.04
2018-02-24T17:03:27.696Z,0.00
2018-02-24T17:05:56.638Z,-0.21
2018-02-24T17:08:25.888Z,-0.20
2018-02-24T17:10:54.167Z,-0.24
2018-02-24T17:13:22.464Z,-0.32
2018-02-24T17:15:51.681Z,-0.24
2018-02-24T17:18:20.832Z,-0.23
2018-02-24T17:20:49.676Z,-0.30
2018-02-24T17:23:18.610Z,-0.33
2018-02-24T17:25:48.365Z,-0.34
2018-02-24T17:28:17.090Z,-0.33
2018-02-24T17:30:45.700Z,-0.22
2018-02-24T17:33:13.983Z,-0.16
2018-02-24T17:35:42.308Z,-0.13
2018-02-24T17:38:10.579Z,-0.12
2018-02-24T17:40:39.713Z,-0.11
2018-02-24T17:43:08.744Z,-0.35
2018-02-24T17:45:37.020Z,-0.44
2018-02-24T17:48:05.309Z,-0.37
2018-02-24T17:50:33.617Z,-0.36
2018-02-24T17:53:01.917Z,-0.43
2018-02-24T17:55:30.216Z,-0.35
2018-02-24T17:57:58.531Z,-0.55
2018-02-24T18:00:27.160Z,-0.62
2018-02-24T18:02:56.219Z,-0.74
2018-02-24T18:05:24.501Z,-0.77
2018-02-24T18:07:52.820Z,-0.88
2018-02-24T18:10:21.109Z,-0.84
2018-02-24T18:12:49.377Z,-0.78
2018-02-24T18:15:17.736Z,-0.83
2018-02-24T18:17:46.812Z,-0.90
2018-02-24T18:20:15.159Z,-0.96
2018-02-24T18:22:43.971Z,-0.92
2018-02-24T18:25:12.310Z,-0.98
2018-02-24T18:27:40.808Z,-0.93
2018-02-24T18:30:09.236Z,-0.96
2018-02-24T18:32:38.283Z,-0.95
2018-02-24T18:35:06.582Z,-0.89
2018-02-24T18:37:34.966Z,-0.99
2018-02-24T18:40:03.472Z,-1.06
2018-02-24T18:42:32.569Z,-1.06
2018-02-24T18:45:02.513Z,-1.06
2018-02-24T18:47:30.813Z,-1.11
2018-02-24T18:50:00.326Z,-1.10
2018-02-24T18:52:28.640Z,-1.16
2018-02-24T18:54:57.130Z,-1.15
2018-02-24T18:57:26.896Z,-1.16
2018-02-24T18:59:55.667Z,-1.16
2018-02-24T19:02:25.449Z,-1.24
2018-02-24T19:04:54.501Z,-1.15
2018-02-24T19:07:22.782Z,-1.42
2018-02-24T19:09:51.894Z,-1.32
2018-02-24T19:12:20.194Z,-1.29
2018-02-24T19:14:49.493Z,-1.39
2018-02-24T19:17:17.836Z,-1.47
2018-02-24T19:19:46.126Z,-1.53
2018-02-24T19:22:14.409Z,-1.40
2018-02-24T19:24:43.754Z,-1.42
2018-02-24T19:27:12.016Z,-1.38
2018-02-24T19:29:41.113Z,-1.44
2018-02-24T19:32:10.515Z,-1.57
2018-02-24T19:34:39.569Z,-1.54
2018-02-24T19:37:07.888Z,-1.52
2018-02-24T19:39:36.946Z,-1.62
2018-02-24T19:42:05.217Z,-1.70
2018-02-24T19:44:33.515Z,-1.63
2018-02-24T19:47:02.618Z,-1.65
2018-02-24T19:49:31.361Z,-1.76
2018-02-24T19:51:59.788Z,-1.65
2018-02-24T19:54:28.863Z,-1.68
2018-02-24T19:56:57.876Z,-1.79
2018-02-24T19:59:26.447Z,-1.83
2018-02-24T20:01:54.754Z,-1.80
2018-02-24T20:04:23.058Z,-1.93
2018-02-24T20:06:51.605Z,-1.94
2018-02-24T20:09:20.830Z,-2.10
2018-02-24T20:11:49.908Z,-2.07
2018-02-24T20:14:18.390Z,-2.07
2018-02-24T20:16:46.799Z,-2.06
2018-02-24T20:19:15.720Z,-2.16
2018-02-24T20:21:44.725Z,-2.14
2018-02-24T20:24:13.014Z,-2.07
2018-02-24T20:26:41.921Z,-2.06
2018-02-24T20:29:10.588Z,-2.06
2018-02-24T20:31:38.896Z,-2.12
2018-02-24T20:34:07.184Z,-2.13
2018-02-24T20:36:36.545Z,-2.14
2018-02-24T20:39:04.833Z,-2.08
2018-02-24T20:41:33.536Z,-2.08
2018-02-24T20:44:02.001Z,-2.30
2018-02-24T20:46:30.296Z,-2.23
2018-02-24T20:48:58.621Z,-2.31
2018-02-24T20:51:27.390Z,-2.25
2018-02-24T20:53:56.457Z,-2.33
2018-02-24T20:56:24.792Z,-2.38
2018-02-24T20:58:53.123Z,-2.43
2018-02-24T21:01:21.404Z,-2.29
2018-02-24T21:03:50.449Z,-2.33
2018-02-24T21:06:18.758Z,-2.53
2018-02-24T21:08:47.856Z,-2.45
2018-02-24T21:11:16.144Z,-2.44
2018-02-24T21:13:44.442Z,-2.38
2018-02-24T21:16:15.032Z,-2.34
2018-02-24T21:18:43.325Z,-2.30
2018-02-24T21:21:12.286Z,-2.41
2018-02-24T21:23:40.589Z,-2.40
2018-02-24T21:26:08.903Z,-2.43
2018-02-24T21:28:38.783Z,-2.47
2018-02-24T21:31:07.772Z,-2.52
2018-02-24T21:33:36.144Z,-2.60
2018-02-24T21:36:04.496Z,-2.65
2018-02-24T21:38:32.890Z,-2.70
2018-02-24T21:41:01.169Z,-2.62
2018-02-24T21:43:29.857Z,-2.61
2018-02-24T21:45:58.224Z,-2.75
2018-02-24T21:48:26.636Z,-2.81
2018-02-24T21:50:55.351Z,-2.71
2018-02-24T21:53:23.697Z,-2.75
2018-02-24T21:55:52.903Z,-2.66
2018-02-24T21:58:21.173Z,-2.70
2018-02-24T22:00:49.558Z,-2.75
2018-02-24T22:03:18.256Z,-2.79
2018-02-24T22:05:46.609Z,-2.85
2018-02-24T22:08:16.416Z,-2.88
2018-02-24T22:10:44.820Z,-2.72
2018-02-24T22:13:13.396Z,-2.96
2018-02-24T22:15:42.909Z,-3.00
2018-02-24T22:18:11.292Z,-2.96
2018-02-24T22:20:39.594Z,-2.97
2018-02-24T22:23:08.495Z,-2.95
2018-02-24T22:25:37.556Z,-2.95
2018-02-24T22:28:05.848Z,-3.04
2018-02-24T22:30:51.171Z,-3.05
2018-02-24T22:33:19.477Z,-3.01
2018-02-24T22:35:47.774Z,-3.01
2018-02-24T22:38:16.103Z,-3.10
2018-02-24T22:40:44.495Z,-3.10
2018-02-24T22:43:12.806Z,-3.06
2018-02-24T22:45:41.412Z,-3.08
2018-02-24T22:48:15.252Z,-3.13
2018-02-24T22:50:43.788Z,-3.15
2018-02-24T22:53:12.095Z,-3.21
2018-02-24T22:55:41.148Z,-3.27
2018-02-24T22:58:10.637Z,-3.42
2018-02-24T23:00:39.993Z,-3.45
2018-02-24T23:03:08.309Z,-3.43
2018-02-24T23:05:36.694Z,-3.47
2018-02-24T23:08:05.089Z,-3.54
2018-02-24T23:10:33.364Z,-3.53
2018-02-24T23:13:01.919Z,-3.53
2018-02-24T23:15:30.210Z,-3.53
2018-02-24T23:17:58.493Z,-3.63
2018-02-24T23:20:26.780Z,-3.56
2018-02-24T23:22:55.060Z,-3.56
2018-02-24T23:25:24.566Z,-3.64
2018-02-24T23:27:52.852Z,-3.74
2018-02-24T23:30:21.177Z,-3.83
2018-02-24T23:32:50.342Z,-3.80
2018-02-24T23:35:18.717Z,-3.84
2018-02-24T23:37:47.019Z,-3.93
2018-02-24T23:40:15.319Z,-3.91
2018-02-24T23:42:44.470Z,-3.89
2018-02-24T23:45:12.752Z,-3.98
2018-02-24T23:47:41.311Z,-3.90
2018-02-24T23:50:09.592Z,-3.95
2018-02-24T23:52:37.887Z,-4.08
2018-02-24T23:55:06.743Z,-4.18
2018-02-24T23:57:35.041Z,-4.12
